Time;durP1;ratioP1;P1;durP2;ratioP2;P2;SDS_P1;SDS_P2;PMS_P1;PMS_P2;Temp;Humidity;BMP_temperature;BMP_pressure;BME280_temperature;BME280_humidity;BME280_pressure;Samples;Min_cycle;Max_cycle;Signal;HPM_P1;HPM_P2
2023/01/15 00:00:35;;;;;;;1.40;1.30;;;8.40;99.90;;;;;;4988663;28;20449;-76
2023/01/15 00:03:02;;;;;;;1.30;1.13;;;8.40;99.90;;;;;;4989479;28;20453;-76
2023/01/15 00:05:29;;;;;;;1.60;1.47;;;8.30;99.90;;;;;;4988905;28;20968;-75
2023/01/15 00:07:57;;;;;;;2.10;1.60;;;8.30;99.90;;;;;;4989089;28;20487;-75
2023/01/15 00:10:24;;;;;;;1.10;1.00;;;8.30;99.90;;;;;;4988177;28;20469;-75
2023/01/15 00:12:51;;;;;;;2.33;1.40;;;8.10;99.90;;;;;;4988975;28;20452;-75
2023/01/15 00:15:18;;;;;;;2.07;1.13;;;8.30;99.90;;;;;;4989009;28;20532;-75
2023/01/15 00:17:44;;;;;;;1.23;1.10;;;8.10;99.90;;;;;;4988480;28;21160;-75
2023/01/15 00:20:12;;;;;;;1.30;1.20;;;8.10;99.90;;;;;;4988334;28;20812;-75
2023/01/15 00:22:40;;;;;;;1.50;1.23;;;7.80;99.90;;;;;;4988778;28;20449;-75
2023/01/15 00:27:55;;;;;;;1.90;1.03;;;7.90;99.90;;;;;;4986522;28;20476;-75
2023/01/15 00:30:23;;;;;;;1.20;1.00;;;7.80;99.90;;;;;;4988728;28;20449;-75
2023/01/15 00:32:49;;;;;;;1.90;1.10;;;7.90;99.90;;;;;;4989611;28;20445;-75
2023/01/15 00:35:19;;;;;;;1.30;1.20;;;7.90;99.90;;;;;;4990163;28;20461;-75
2023/01/15 00:37:46;;;;;;;1.50;1.00;;;8.10;99.90;;;;;;4989579;28;20564;-76
2023/01/15 00:40:15;;;;;;;1.00;0.90;;;8.00;99.90;;;;;;4989691;28;20453;-75
2023/01/15 00:42:42;;;;;;;1.80;1.40;;;8.00;99.90;;;;;;4989558;28;20459;-76
2023/01/15 00:45:11;;;;;;;1.93;1.40;;;8.00;99.90;;;;;;4988782;28;20469;-75
2023/01/15 00:47:39;;;;;;;2.70;1.10;;;8.00;99.90;;;;;;4989348;28;20491;-75
2023/01/15 00:50:08;;;;;;;1.43;1.10;;;8.00;99.90;;;;;;4989964;28;20458;-75
2023/01/15 00:52:35;;;;;;;1.60;1.20;;;8.10;99.90;;;;;;4989460;28;20450;-75
2023/01/15 00:55:02;;;;;;;1.93;1.10;;;7.90;99.90;;;;;;4989678;28;20460;-75
2023/01/15 00:57:30;;;;;;;2.90;1.30;;;7.90;99.90;;;;;;4989559;28;20449;-75
2023/01/15 00:59:56;;;;;;;1.57;1.10;;;8.00;99.90;;;;;;4988309;28;20469;-75
2023/01/15 01:02:23;;;;;;;1.00;0.83;;;7.90;99.90;;;;;;4988913;28;21027;-76
2023/01/15 01:04:50;;;;;;;1.53;1.10;;;7.90;99.90;;;;;;4989321;28;20857;-75
2023/01/15 01:07:17;;;;;;;1.03;0.87;;;7.60;99.90;;;;;;4988876;28;20495;-75
2023/01/15 01:09:44;;;;;;;1.30;1.20;;;7.70;99.90;;;;;;4989335;28;20523;-75
2023/01/15 01:12:11;;;;;;;1.20;1.10;;;7.70;99.90;;;;;;4989079;28;20707;-75
2023/01/15 01:14:39;;;;;;;1.50;1.10;;;7.60;99.90;;;;;;4989420;28;20549;-75
2023/01/15 01:17:06;;;;;;;1.60;1.10;;;7.70;99.90;;;;;;4988373;28;20733;-75
2023/01/15 01:19:33;;;;;;;1.20;1.10;;;7.80;99.90;;;;;;4990093;28;20441;-76
2023/01/15 01:22:00;;;;;;;1.30;1.07;;;7.70;99.90;;;;;;4989196;28;20449;-75
2023/01/15 01:24:27;;;;;;;1.30;1.03;;;7.60;99.90;;;;;;4989006;28;20465;-75
2023/01/15 01:26:53;;;;;;;1.40;0.90;;;7.70;99.90;;;;;;4989007;28;20481;-75
2023/01/15 01:29:22;;;;;;;3.03;1.33;;;7.70;99.90;;;;;;4989111;28;20949;-75
2023/01/15 01:31:51;;;;;;;1.43;0.90;;;7.60;99.90;;;;;;4988190;28;20528;-76
2023/01/15 01:34:18;;;;;;;1.30;1.20;;;7.60;99.90;;;;;;4989514;28;20492;-81
2023/01/15 01:36:45;;;;;;;1.10;1.00;;;7.60;99.90;;;;;;4994171;28;20460;-76
2023/01/15 01:39:14;;;;;;;1.00;0.90;;;7.60;99.90;;;;;;4996495;28;20453;-75
2023/01/15 01:41:41;;;;;;;0.87;0.80;;;7.80;99.90;;;;;;4995470;28;20453;-75
2023/01/15 01:44:28;;;;;;;1.30;0.80;;;7.60;99.90;;;;;;4996508;28;20453;-75
2023/01/15 01:46:56;;;;;;;1.00;0.90;;;7.70;99.90;;;;;;4994843;28;20480;-76
2023/01/15 01:49:24;;;;;;;1.20;0.93;;;7.70;99.90;;;;;;4987954;28;20481;-76
2023/01/15 01:51:56;;;;;;;1.20;0.90;;;7.70;99.90;;;;;;4989023;28;20453;-75
2023/01/15 01:54:26;;;;;;;1.50;0.90;;;7.70;99.90;;;;;;4989117;28;20453;-75
2023/01/15 01:56:54;;;;;;;2.30;1.30;;;7.60;99.90;;;;;;4989100;28;20438;-75
2023/01/15 01:59:23;;;;;;;1.10;1.00;;;7.60;99.90;;;;;;4988963;28;20489;-75
2023/01/15 02:01:51;;;;;;;1.40;1.20;;;7.70;99.90;;;;;;4989209;28;20473;-78
2023/01/15 05:56:21;;;;;;;0.80;0.70;;;10.70;99.90;;;;;;5197615;23;20528;-78
2023/01/15 05:58:47;;;;;;;0.90;0.80;;;10.70;99.90;;;;;;4989113;28;20449;-76
2023/01/15 06:01:15;;;;;;;2.30;0.93;;;10.60;99.90;;;;;;4988627;28;20554;-79
2023/01/15 06:03:42;;;;;;;0.80;0.67;;;10.70;99.90;;;;;;4988588;28;20963;-76
2023/01/15 06:06:13;;;;;;;1.10;1.00;;;10.70;99.90;;;;;;4989134;28;20448;-76
2023/01/15 06:08:40;;;;;;;0.83;0.80;;;10.90;99.90;;;;;;4988885;28;20977;-77
2023/01/15 06:11:07;;;;;;;0.70;0.60;;;11.10;99.90;;;;;;4988923;28;20464;-76
2023/01/15 06:13:35;;;;;;;1.03;0.70;;;10.90;99.90;;;;;;4989587;28;20453;-76
2023/01/15 06:16:02;;;;;;;0.90;0.70;;;10.90;99.90;;;;;;4992233;28;20665;-75
2023/01/15 06:18:29;;;;;;;0.90;0.60;;;10.90;99.90;;;;;;4988744;28;20445;-74
2023/01/15 06:20:56;;;;;;;0.80;0.70;;;10.80;99.90;;;;;;4988058;28;20449;-75
2023/01/15 06:23:22;;;;;;;0.90;0.60;;;10.80;99.90;;;;;;4977855;28;20465;-75
2023/01/15 06:25:49;;;;;;;0.80;0.80;;;10.90;99.90;;;;;;4986473;28;20981;-75
2023/01/15 06:28:16;;;;;;;0.90;0.70;;;11.10;99.90;;;;;;4987977;28;20481;-77
2023/01/15 06:30:44;;;;;;;0.97;0.87;;;11.10;99.90;;;;;;4987448;28;20966;-82
2023/01/15 06:33:11;;;;;;;1.07;0.60;;;11.30;99.90;;;;;;4987984;28;20445;-76
2023/01/15 06:35:37;;;;;;;0.70;0.60;;;11.40;99.90;;;;;;4987341;28;20445;-74
2023/01/15 06:38:04;;;;;;;0.80;0.60;;;11.40;99.90;;;;;;4986704;28;21000;-76
2023/01/15 06:40:31;;;;;;;1.00;0.70;;;11.40;99.90;;;;;;4985813;28;20471;-75
2023/01/15 06:48:29;;;;;;;0.70;0.60;;;11.60;99.90;;;;;;4983706;28;20546;-78
2023/01/15 06:50:56;;;;;;;1.00;0.70;;;11.60;99.90;;;;;;4978402;28;20446;-75
2023/01/15 06:53:23;;;;;;;0.70;0.60;;;11.40;99.90;;;;;;4974956;28;20446;-80
2023/01/15 06:55:49;;;;;;;0.80;0.60;;;11.60;99.90;;;;;;4978465;28;20474;-79
2023/01/15 06:58:16;;;;;;;0.80;0.60;;;11.60;99.90;;;;;;4977515;28;20453;-76
2023/01/15 07:00:52;;;;;;;0.93;0.70;;;11.60;99.90;;;;;;4980674;28;20453;-81
2023/01/15 07:03:18;;;;;;;0.70;0.60;;;11.70;99.90;;;;;;4981136;28;20718;-76
2023/01/15 07:05:45;;;;;;;0.87;0.70;;;11.60;99.90;;;;;;4973007;28;20449;-77
2023/01/15 07:08:12;;;;;;;0.70;0.60;;;11.60;99.90;;;;;;4973154;28;20489;-79
2023/01/15 07:10:39;;;;;;;1.00;0.90;;;11.60;99.90;;;;;;4972009;28;20458;-76
2023/01/15 07:13:06;;;;;;;1.13;0.60;;;11.70;99.90;;;;;;4979652;28;20773;-83
2023/01/15 07:15:33;;;;;;;0.77;0.60;;;11.70;99.90;;;;;;4963994;28;20968;-76
2023/01/15 07:18:03;;;;;;;0.80;0.63;;;11.60;99.90;;;;;;4953993;28;20454;-76
2023/01/15 07:20:30;;;;;;;0.80;0.60;;;11.60;99.90;;;;;;4952559;28;20879;-76
2023/01/15 07:22:57;;;;;;;0.70;0.60;;;11.60;99.90;;;;;;4956206;28;20443;-83
2023/01/15 07:25:23;;;;;;;0.73;0.70;;;11.40;99.90;;;;;;4953940;28;20538;-75
2023/01/15 07:30:25;;;;;;;0.90;0.63;;;11.30;99.90;;;;;;5201150;23;20558;-77
2023/01/15 07:32:52;;;;;;;0.80;0.70;;;11.30;99.90;;;;;;4991368;28;20483;-77
2023/01/15 07:35:20;;;;;;;1.23;0.70;;;11.70;99.90;;;;;;4990274;28;20449;-78
2023/01/15 07:37:51;;;;;;;0.80;0.60;;;11.40;99.90;;;;;;4992781;28;21046;-78
2023/01/15 07:40:18;;;;;;;0.70;0.60;;;11.50;99.90;;;;;;4991290;28;20940;-77
2023/01/15 07:51:13;;;;;;;0.80;0.60;;;11.30;99.90;;;;;;4949783;29;20493;-78
2023/01/15 07:53:40;;;;;;;0.80;0.70;;;11.60;99.90;;;;;;4973476;28;20459;-76
2023/01/15 07:56:08;;;;;;;0.80;0.70;;;11.50;99.90;;;;;;4991343;28;20591;-76
2023/01/15 07:58:35;;;;;;;0.90;0.60;;;11.50;99.90;;;;;;4991125;28;20528;-77
2023/01/15 08:01:01;;;;;;;0.80;0.60;;;11.50;99.90;;;;;;4989889;28;20472;-76
2023/01/15 08:03:28;;;;;;;1.00;0.70;;;11.50;99.90;;;;;;4990816;28;20528;-77
2023/01/15 08:05:55;;;;;;;0.80;0.60;;;11.60;99.90;;;;;;4991745;28;20454;-78
2023/01/15 08:08:23;;;;;;;0.90;0.67;;;11.50;99.90;;;;;;5017260;22;20583;-90
2023/01/15 08:16:18;;;;;;;0.70;0.57;;;11.50;99.90;;;;;;5017866;28;20415;-82
2023/01/15 08:18:45;;;;;;;0.70;0.60;;;11.60;99.90;;;;;;5030789;28;20443;-86
2023/01/15 08:21:16;;;;;;;0.90;0.60;;;11.60;99.90;;;;;;5218736;23;21177;-86
2023/01/15 08:23:45;;;;;;;0.80;0.60;;;11.20;99.90;;;;;;5001271;28;20433;-84
2023/01/15 08:26:13;;;;;;;0.80;0.60;;;11.80;99.90;;;;;;5015501;28;20445;-85
2023/01/15 08:28:39;;;;;;;1.13;0.60;;;11.70;99.90;;;;;;5005612;28;20559;-83
2023/01/15 08:31:07;;;;;;;1.67;0.70;;;11.80;99.90;;;;;;5013378;28;20442;-89
2023/01/15 08:33:34;;;;;;;0.97;0.57;;;11.80;99.90;;;;;;5007400;28;20437;-82
2023/01/15 08:36:01;;;;;;;1.17;0.70;;;11.70;99.90;;;;;;4990561;28;20466;-85
2023/01/15 08:38:27;;;;;;;1.10;0.70;;;11.80;99.90;;;;;;4982976;28;20453;-84
2023/01/15 08:40:59;;;;;;;0.70;0.60;;;11.70;99.90;;;;;;4986304;28;20812;-85
2023/01/15 08:43:26;;;;;;;1.00;0.70;;;11.80;99.90;;;;;;4992690;28;20462;-80
2023/01/15 08:45:53;;;;;;;0.70;0.60;;;11.80;99.90;;;;;;4993598;28;20460;-85
2023/01/15 08:48:19;;;;;;;0.80;0.80;;;11.90;99.90;;;;;;4988939;28;20584;-92
2023/01/15 08:50:47;;;;;;;0.90;0.60;;;11.90;99.90;;;;;;4976212;28;20446;-78
2023/01/15 08:53:13;;;;;;;1.00;0.70;;;12.00;99.90;;;;;;4985897;28;20622;-77
2023/01/15 08:55:40;;;;;;;0.80;0.63;;;12.20;99.90;;;;;;4991589;28;20449;-79
2023/01/15 08:58:08;;;;;;;0.80;0.77;;;12.10;99.90;;;;;;4992146;28;20489;-82
2023/01/15 09:00:35;;;;;;;0.97;0.70;;;12.20;99.90;;;;;;5001353;28;20499;-79
2023/01/15 09:03:02;;;;;;;1.00;0.80;;;12.10;99.90;;;;;;4989453;28;20540;-80
2023/01/15 09:05:29;;;;;;;0.80;0.70;;;12.10;99.90;;;;;;4975580;28;20470;-80
2023/01/15 09:07:55;;;;;;;1.07;0.77;;;12.10;99.90;;;;;;4977293;28;20439;-81
2023/01/15 09:10:23;;;;;;;0.70;0.60;;;12.10;99.90;;;;;;4992544;28;20506;-79
2023/01/15 09:12:50;;;;;;;0.80;0.70;;;12.40;99.90;;;;;;4989071;28;20533;-81
2023/01/15 09:15:18;;;;;;;0.80;0.60;;;12.10;99.90;;;;;;4991255;28;20454;-80
2023/01/15 09:17:45;;;;;;;0.70;0.60;;;12.20;99.90;;;;;;4994714;28;20445;-79
2023/01/15 09:20:14;;;;;;;1.00;0.83;;;12.30;99.90;;;;;;4993408;28;20784;-79
2023/01/15 09:22:41;;;;;;;4.00;0.90;;;12.50;99.90;;;;;;4991400;28;20480;-79
2023/01/15 09:25:08;;;;;;;0.90;0.70;;;12.40;99.90;;;;;;4988432;28;20904;-78
2023/01/15 09:27:36;;;;;;;1.00;0.80;;;12.50;99.90;;;;;;4993425;28;20477;-79
2023/01/15 09:30:05;;;;;;;0.80;0.70;;;12.50;99.90;;;;;;4998151;28;20481;-78
2023/01/15 09:32:34;;;;;;;0.80;0.70;;;12.60;99.90;;;;;;5000261;28;20491;-80
2023/01/15 09:35:01;;;;;;;1.10;0.90;;;12.60;99.90;;;;;;4995964;28;20468;-86
2023/01/15 09:37:28;;;;;;;0.97;0.87;;;12.80;99.90;;;;;;4989891;28;20445;-93
2023/01/15 09:39:54;;;;;;;1.03;0.93;;;12.90;99.90;;;;;;4988312;28;20523;-79
2023/01/15 09:42:34;;;;;;;0.80;0.60;;;13.10;99.90;;;;;;4989277;28;20480;-79
2023/01/15 09:45:24;;;;;;;0.80;0.70;;;13.00;99.90;;;;;;4992325;28;20457;-79
2023/01/15 09:48:07;;;;;;;1.10;0.80;;;13.10;99.90;;;;;;4992912;28;20477;-79
2023/01/15 09:50:49;;;;;;;1.73;0.80;;;13.10;99.90;;;;;;4992567;28;20509;-79
2023/01/15 09:53:53;;;;;;;1.00;0.73;;;13.20;99.90;;;;;;4991415;28;20449;-78
2023/01/15 09:56:22;;;;;;;1.00;0.70;;;12.80;99.90;;;;;;4989036;28;20485;-79
2023/01/15 09:58:50;;;;;;;0.83;0.70;;;13.10;99.90;;;;;;4986994;28;20457;-79
2023/01/15 10:01:20;;;;;;;2.13;0.87;;;13.10;99.90;;;;;;4992220;28;20541;-80
2023/01/15 10:03:54;;;;;;;0.90;0.70;;;13.00;99.90;;;;;;4993514;28;20940;-79
2023/01/15 10:06:25;;;;;;;1.10;0.80;;;13.00;99.90;;;;;;4996727;28;20449;-79
2023/01/15 10:09:01;;;;;;;1.87;1.00;;;13.00;99.90;;;;;;4993349;28;20473;-78
2023/01/15 10:14:37;;;;;;;2.70;0.90;;;10.50;99.90;;;;;;4988726;28;20452;-78
2023/01/15 10:17:07;;;;;;;1.57;0.90;;;9.50;99.90;;;;;;4987649;28;20557;-79
2023/01/15 10:19:36;;;;;;;1.63;0.73;;;9.80;99.90;;;;;;4989131;28;20524;-80
2023/01/15 10:22:11;;;;;;;1.20;0.73;;;9.20;99.90;;;;;;4988788;28;20473;-78
2023/01/15 10:24:39;;;;;;;4.30;2.43;;;7.80;99.90;;;;;;4987567;28;20459;-79
2023/01/15 10:27:15;;;;;;;1.60;0.90;;;7.90;99.90;;;;;;4994548;28;20788;-78
2023/01/15 10:29:46;;;;;;;1.63;0.87;;;8.10;99.90;;;;;;4994417;28;20579;-85
2023/01/15 10:32:23;;;;;;;1.40;0.70;;;7.30;99.90;;;;;;4990574;28;20467;-79
2023/01/15 10:35:28;;;;;;;1.00;0.67;;;6.80;99.90;;;;;;4989345;28;20445;-79
2023/01/15 10:38:01;;;;;;;1.30;0.80;;;7.00;99.90;;;;;;4991063;28;20461;-84
2023/01/15 10:40:51;;;;;;;1.07;0.70;;;6.80;99.90;;;;;;4991571;28;20467;-80
2023/01/15 10:43:23;;;;;;;1.67;0.73;;;7.20;99.90;;;;;;4993505;28;20911;-80
2023/01/15 10:45:54;;;;;;;0.80;0.70;;;7.10;99.90;;;;;;4989188;28;20544;-78
2023/01/15 10:48:29;;;;;;;1.30;1.03;;;6.40;99.90;;;;;;4988940;28;20477;-81
2023/01/15 10:51:00;;;;;;;1.10;0.90;;;7.10;99.90;;;;;;4995828;28;20501;-85
2023/01/15 10:53:33;;;;;;;1.20;0.97;;;6.60;99.90;;;;;;4991506;28;20485;-83
2023/01/15 10:56:07;;;;;;;1.70;1.60;;;6.50;99.90;;;;;;4992028;28;20473;-82
2023/01/15 10:58:40;;;;;;;0.80;0.77;;;6.20;99.90;;;;;;4992565;28;20483;-92
2023/01/15 11:01:12;;;;;;;0.80;0.80;;;6.30;99.90;;;;;;4997316;28;20454;-85
2023/01/15 11:03:40;;;;;;;7.60;0.70;;;6.10;99.90;;;;;;5010971;28;21147;-80
2023/01/15 11:06:14;;;;;;;1.10;0.77;;;6.90;99.90;;;;;;4991872;28;20461;-80
2023/01/15 11:08:44;;;;;;;2.33;1.63;;;6.20;99.90;;;;;;4991565;28;20485;-88
2023/01/15 11:11:22;;;;;;;1.97;0.70;;;6.20;99.90;;;;;;5008525;28;20826;-87
2023/01/15 11:19:38;;;;;;;0.90;0.70;;;5.70;99.90;;;;;;5036090;28;20523;-82
2023/01/15 11:22:12;;;;;;;1.23;0.80;;;5.60;99.90;;;;;;5008794;28;20583;-82
2023/01/15 11:24:47;;;;;;;0.80;0.70;;;5.70;99.90;;;;;;4997268;28;20484;-88
2023/01/15 11:27:17;;;;;;;1.57;0.70;;;6.20;99.90;;;;;;4995184;28;21004;-88
2023/01/15 11:29:45;;;;;;;0.87;0.70;;;6.10;99.90;;;;;;4996276;28;21047;-82
2023/01/15 11:32:28;;;;;;;0.90;0.70;;;5.90;99.90;;;;;;4998209;28;20544;-83
2023/01/15 11:34:55;;;;;;;1.40;1.00;;;5.80;99.90;;;;;;4996936;28;20996;-84
2023/01/15 11:37:24;;;;;;;1.47;1.10;;;5.80;99.90;;;;;;4999210;28;20473;-86
2023/01/15 11:39:55;;;;;;;1.10;0.83;;;5.60;99.90;;;;;;5003915;28;20543;-86
2023/01/15 11:51:06;;;;;;;1.60;1.50;;;5.30;99.90;;;;;;5030938;28;20824;-89
2023/01/15 11:53:40;;;;;;;1.40;1.00;;;5.30;99.90;;;;;;5024823;28;20459;-88
2023/01/15 11:56:11;;;;;;;2.47;1.13;;;5.20;99.90;;;;;;4992265;28;20483;-88
2023/01/15 11:58:43;;;;;;;2.20;1.20;;;5.20;99.90;;;;;;4998331;28;20516;-82
2023/01/15 12:01:14;;;;;;;1.60;1.20;;;5.20;99.90;;;;;;5011707;28;20484;-82
2023/01/15 12:03:41;;;;;;;0.90;0.70;;;5.10;99.90;;;;;;5010416;28;20455;-84
2023/01/15 12:06:12;;;;;;;0.90;0.87;;;5.10;99.90;;;;;;5012949;28;20555;-83
2023/01/15 12:08:47;;;;;;;1.83;0.90;;;5.00;99.90;;;;;;5004719;28;20444;-81
2023/01/15 12:11:34;;;;;;;1.30;0.90;;;5.00;99.90;;;;;;5002820;28;20468;-82
2023/01/15 12:14:27;;;;;;;0.80;0.70;;;4.80;99.90;;;;;;5014677;28;20445;-87
2023/01/15 12:17:02;;;;;;;1.00;0.80;;;4.80;99.90;;;;;;4996772;28;20476;-82
2023/01/15 12:19:42;;;;;;;1.30;0.97;;;4.70;99.90;;;;;;4996580;28;20452;-87
2023/01/15 12:22:21;;;;;;;1.33;0.90;;;4.90;99.90;;;;;;4993223;28;20479;-82
2023/01/15 12:25:16;;;;;;;0.90;0.80;;;4.90;99.90;;;;;;4991249;28;20451;-82
2023/01/15 12:27:57;;;;;;;1.30;0.90;;;4.80;99.90;;;;;;5001742;28;20874;-82
2023/01/15 12:30:30;;;;;;;1.00;0.90;;;4.80;99.90;;;;;;4998114;28;20488;-87
2023/01/15 12:33:07;;;;;;;0.83;0.70;;;4.20;99.90;;;;;;5004269;28;20465;-81
2023/01/15 12:35:40;;;;;;;1.13;1.03;;;4.70;99.90;;;;;;5001969;28;20455;-85
2023/01/15 12:38:15;;;;;;;1.10;1.00;;;4.60;99.90;;;;;;4996082;28;20453;-82
2023/01/15 12:40:49;;;;;;;1.23;0.90;;;4.70;99.90;;;;;;5001957;28;20697;-81
2023/01/15 12:46:10;;;;;;;0.90;0.70;;;4.70;99.90;;;;;;4991166;28;20511;-83
2023/01/15 12:48:44;;;;;;;2.63;0.90;;;4.70;99.90;;;;;;4990191;28;20492;-91
2023/01/15 12:51:14;;;;;;;1.00;0.90;;;4.80;99.90;;;;;;5017628;28;20490;-90
2023/01/15 12:53:44;;;;;;;3.23;1.40;;;5.30;99.90;;;;;;5016635;28;20453;-91
2023/01/15 12:56:20;;;;;;;1.10;0.90;;;4.80;99.90;;;;;;4991757;28;20477;-79
2023/01/15 12:58:52;;;;;;;1.40;0.90;;;4.80;99.90;;;;;;4992212;28;20470;-82
2023/01/15 13:01:26;;;;;;;1.50;0.90;;;4.90;99.90;;;;;;4989326;28;20835;-83
2023/01/15 13:04:07;;;;;;;0.80;0.80;;;4.90;99.90;;;;;;4997301;28;20432;-89
2023/01/15 13:06:38;;;;;;;1.60;0.90;;;4.90;99.90;;;;;;4990523;28;20977;-86
2023/01/15 13:09:13;;;;;;;2.30;1.00;;;4.90;99.90;;;;;;4994170;28;20528;-81
2023/01/15 13:11:41;;;;;;;1.17;1.07;;;5.00;99.90;;;;;;5013202;28;20706;-85
2023/01/15 13:14:15;;;;;;;1.00;0.90;;;4.90;99.90;;;;;;5011265;28;20443;-82
2023/01/15 13:16:49;;;;;;;1.30;1.10;;;4.70;99.90;;;;;;5006818;28;20536;-84
2023/01/15 13:19:29;;;;;;;1.00;0.90;;;5.00;99.90;;;;;;5005187;28;20467;-87
2023/01/15 13:22:01;;;;;;;1.90;1.20;;;5.00;99.90;;;;;;5138771;23;20859;-85
2023/01/15 13:24:43;;;;;;;1.23;1.00;;;5.00;99.90;;;;;;4998358;28;20523;-85
2023/01/15 13:27:21;;;;;;;1.00;0.90;;;5.70;99.90;;;;;;4998461;28;20449;-83
2023/01/15 13:35:05;;;;;;;1.10;0.87;;;5.10;99.90;;;;;;5254211;23;20487;-81
2023/01/15 13:37:37;;;;;;;1.00;0.90;;;5.10;99.90;;;;;;5028316;28;20472;-90
2023/01/15 13:43:05;;;;;;;1.10;1.00;;;5.00;99.90;;;;;;4962460;28;20471;-83
2023/01/15 13:45:37;;;;;;;1.00;0.80;;;4.90;99.90;;;;;;5225475;23;20449;-81
2023/01/15 13:48:08;;;;;;;1.43;0.80;;;7.60;99.90;;;;;;4975671;28;20494;-82
2023/01/15 13:50:40;;;;;;;1.00;0.60;;;5.60;99.90;;;;;;4969376;28;20498;-82
2023/01/15 13:53:16;;;;;;;1.70;0.80;;;5.70;99.90;;;;;;4956696;28;20478;-81
2023/01/15 13:55:50;;;;;;;0.83;0.60;;;4.90;99.90;;;;;;4962338;28;20447;-80
2023/01/15 13:58:22;;;;;;;0.80;0.70;;;5.20;99.90;;;;;;4960881;28;20454;-81
2023/01/15 14:01:00;;;;;;;0.90;0.77;;;4.70;99.90;;;;;;4960761;28;20478;-80
2023/01/15 14:03:29;;;;;;;0.90;0.70;;;5.00;99.90;;;;;;4962229;28;20443;-82
2023/01/15 14:06:01;;;;;;;1.20;0.90;;;6.80;99.90;;;;;;4950715;28;20517;-82
2023/01/15 14:08:37;;;;;;;1.07;0.80;;;5.00;99.90;;;;;;4964117;28;20455;-80
2023/01/15 14:11:05;;;;;;;0.90;0.70;;;5.20;99.90;;;;;;5063783;23;20574;-75
2023/01/15 14:48:04;;;;;;;0.80;0.70;;;3.80;99.90;;;;;;5936443;23;20500;-88
2023/01/15 15:00:58;;;;;;;1.00;0.73;;;3.50;99.90;;;;;;5836620;23;20481;-89
2023/01/15 15:03:34;;;;;;;0.80;0.70;;;3.30;99.90;;;;;;5454580;23;20500;-88
2023/01/15 15:13:49;;;;;;;1.30;0.70;;;2.90;99.90;;;;;;3188099;23;20524;-88
2023/01/15 15:16:22;;;;;;;2.20;0.70;;;2.80;99.90;;;;;;4968535;28;20498;-88
2023/01/15 15:18:59;;;;;;;1.20;0.80;;;3.00;99.90;;;;;;5023027;23;20500;-86
2023/01/15 15:21:28;;;;;;;1.00;0.70;;;2.80;99.90;;;;;;5010700;28;20461;-86
2023/01/15 15:26:41;;;;;;;1.33;0.90;;;2.80;99.90;;;;;;5740526;23;20798;31
2023/01/15 15:29:16;;;;;;;1.00;0.80;;;2.50;99.90;;;;;;5271088;23;20482;-82
2023/01/15 15:32:29;;;;;;;1.83;0.90;;;3.00;99.90;;;;;;5013353;28;20496;-88
2023/01/15 15:35:03;;;;;;;1.23;0.90;;;3.60;99.90;;;;;;5016305;28;20539;-89
2023/01/15 15:37:29;;;;;;;1.37;0.87;;;3.00;99.90;;;;;;5017198;28;20539;-81
2023/01/15 15:40:00;;;;;;;1.60;1.40;;;2.90;99.90;;;;;;5018493;28;20960;-83
2023/01/15 15:50:59;;;;;;;2.13;1.50;;;3.00;99.90;;;;;;5016434;28;20545;-87
2023/01/15 15:53:26;;;;;;;1.40;1.30;;;2.80;99.90;;;;;;5001663;28;20467;-79
2023/01/15 15:55:55;;;;;;;1.53;1.00;;;2.90;99.90;;;;;;5022177;28;20443;-81
2023/01/15 15:58:27;;;;;;;1.40;1.13;;;3.20;99.90;;;;;;5011715;28;20560;-85
2023/01/15 16:00:56;;;;;;;2.03;1.23;;;3.10;99.90;;;;;;5016552;28;20938;-82
2023/01/15 16:03:25;;;;;;;2.07;1.30;;;3.00;99.90;;;;;;5031832;28;20727;-83
2023/01/15 16:05:57;;;;;;;1.90;1.43;;;3.00;99.90;;;;;;5021495;28;20494;-82
2023/01/15 16:08:26;;;;;;;2.27;1.57;;;3.10;99.90;;;;;;5017101;28;20640;-83
2023/01/15 16:10:55;;;;;;;2.50;1.63;;;3.10;99.90;;;;;;5016010;28;20571;-80
2023/01/15 16:13:25;;;;;;;1.47;1.10;;;3.40;99.90;;;;;;5014057;28;20457;-84
2023/01/15 16:15:53;;;;;;;3.90;2.70;;;3.40;99.90;;;;;;5008251;28;20453;-83
2023/01/15 16:18:24;;;;;;;1.30;1.17;;;3.50;99.90;;;;;;5006931;28;20558;-78
2023/01/15 16:20:52;;;;;;;1.50;1.20;;;3.50;99.90;;;;;;5006215;28;20470;-78
2023/01/15 16:23:21;;;;;;;1.20;1.10;;;3.50;99.90;;;;;;5006797;28;20440;-78
2023/01/15 16:26:00;;;;;;;1.33;1.00;;;3.50;99.90;;;;;;5010905;28;20561;-82
2023/01/15 16:28:32;;;;;;;1.27;1.17;;;3.60;99.90;;;;;;5120291;23;20486;-83
2023/01/15 16:36:10;;;;;;;1.10;1.00;;;3.60;99.90;;;;;;5675228;23;20513;-88
2023/01/15 16:38:40;;;;;;;0.90;0.80;;;3.50;99.90;;;;;;5019396;28;20498;-82
2023/01/15 16:41:18;;;;;;;0.93;0.83;;;3.50;99.90;;;;;;5009166;28;20514;-77
2023/01/15 16:43:52;;;;;;;1.00;0.90;;;3.50;99.90;;;;;;5006802;28;21125;-76
2023/01/15 16:56:52;;;;;;;1.00;0.80;;;3.60;99.90;;;;;;5391887;23;20483;-85
2023/01/15 16:59:54;;;;;;;1.03;0.87;;;4.10;99.90;;;;;;5031082;28;20462;-83
2023/01/15 17:02:21;;;;;;;0.90;0.80;;;4.00;99.90;;;;;;5032338;28;20460;-86
2023/01/15 17:04:50;;;;;;;1.63;1.10;;;4.60;99.90;;;;;;5031439;28;20448;-83
2023/01/15 17:07:22;;;;;;;2.03;0.80;;;3.50;99.90;;;;;;5034822;28;20435;-83
2023/01/15 17:09:52;;;;;;;1.40;1.10;;;3.40;99.90;;;;;;5027401;28;20636;-84
2023/01/15 17:12:26;;;;;;;1.43;1.13;;;3.40;99.90;;;;;;5025323;28;20483;-81
2023/01/15 17:14:53;;;;;;;1.13;0.97;;;3.40;99.90;;;;;;5028458;28;20460;-84
2023/01/15 17:17:34;;;;;;;3.43;1.00;;;3.40;99.90;;;;;;5028613;28;20529;-80
2023/01/15 17:20:01;;;;;;;1.53;0.90;;;3.50;99.90;;;;;;5030479;28;20459;-88
2023/01/15 17:22:30;;;;;;;8.73;1.30;;;3.30;99.90;;;;;;5032278;28;20462;-84
2023/01/15 17:24:59;;;;;;;3.40;1.30;;;3.40;99.90;;;;;;5020515;28;20495;-86
2023/01/15 17:27:29;;;;;;;1.20;1.10;;;3.30;99.90;;;;;;5020049;28;20959;-86
2023/01/15 17:29:56;;;;;;;3.63;1.20;;;3.40;99.90;;;;;;5031628;28;20483;-84
2023/01/15 17:32:34;;;;;;;2.13;1.23;;;3.60;99.90;;;;;;5034428;28;20463;-83
2023/01/15 17:35:02;;;;;;;4.43;1.30;;;3.40;99.90;;;;;;5023937;28;20799;-87
2023/01/15 17:37:29;;;;;;;1.03;0.93;;;3.30;99.90;;;;;;5017592;28;20902;-84
2023/01/15 17:39:56;;;;;;;1.37;0.80;;;3.20;99.90;;;;;;5020950;28;20520;-82
2023/01/15 17:42:23;;;;;;;3.43;0.90;;;3.40;99.90;;;;;;5006049;28;20469;-85
2023/01/15 17:44:51;;;;;;;1.83;1.10;;;3.40;99.90;;;;;;5004174;28;20838;-82
2023/01/15 17:47:18;;;;;;;1.23;1.13;;;3.40;99.90;;;;;;5004434;28;20862;-86
2023/01/15 17:49:44;;;;;;;1.77;1.27;;;3.30;99.90;;;;;;5003086;28;20500;-82
2023/01/15 17:52:19;;;;;;;1.20;1.10;;;3.30;99.90;;;;;;5031405;28;20564;-84
2023/01/15 18:06:09;;;;;;;3.00;1.20;;;3.40;99.90;;;;;;5025243;28;20438;-82
2023/01/15 18:08:36;;;;;;;1.30;1.20;;;3.30;99.90;;;;;;5026439;28;20754;-88
2023/01/15 18:11:03;;;;;;;1.00;0.90;;;3.30;99.90;;;;;;5025293;28;20502;-82
2023/01/15 18:13:30;;;;;;;1.60;1.27;;;3.40;99.90;;;;;;5026454;28;20506;-86
2023/01/15 18:15:58;;;;;;;4.40;1.10;;;3.30;99.90;;;;;;5024005;28;20463;-79
2023/01/15 18:18:25;;;;;;;18.13;9.53;;;3.20;99.90;;;;;;5013710;28;20537;-75
2023/01/15 18:20:52;;;;;;;1.77;1.00;;;3.40;99.90;;;;;;5015646;28;20507;-81
2023/01/15 18:23:19;;;;;;;3.10;1.20;;;3.40;99.90;;;;;;5007220;28;20480;-80
2023/01/15 18:25:49;;;;;;;2.10;1.00;;;3.30;99.90;;;;;;5009000;28;20459;-85
2023/01/15 18:28:16;;;;;;;1.40;1.10;;;3.40;99.90;;;;;;5030097;28;20483;-83
2023/01/15 18:30:42;;;;;;;1.10;0.90;;;3.30;99.90;;;;;;5024005;28;20511;-81
2023/01/15 18:33:11;;;;;;;1.60;0.90;;;3.30;99.90;;;;;;5027934;28;20490;-82
2023/01/15 18:35:38;;;;;;;2.17;0.93;;;3.30;99.90;;;;;;5026915;28;20508;-83
2023/01/15 18:38:04;;;;;;;1.57;1.40;;;3.20;99.90;;;;;;5027962;28;20555;-85
2023/01/15 18:40:33;;;;;;;3.00;1.20;;;3.20;99.90;;;;;;5015036;28;20456;-83
2023/01/15 18:48:33;;;;;;;2.03;1.40;;;3.10;99.90;;;;;;5011730;28;20479;-84
2023/01/15 18:51:07;;;;;;;1.80;1.40;;;3.20;99.90;;;;;;5015054;28;20530;-87
2023/01/15 18:53:33;;;;;;;3.73;1.30;;;3.20;99.90;;;;;;5017412;28;21006;-88
2023/01/15 18:56:02;;;;;;;8.03;2.03;;;3.20;99.90;;;;;;5007128;28;20561;-91
2023/01/15 18:58:29;;;;;;;2.20;1.30;;;3.20;99.90;;;;;;5013699;28;20519;-92
2023/01/15 19:00:56;;;;;;;4.13;2.47;;;3.10;99.90;;;;;;5036161;28;20444;-89
2023/01/15 19:03:23;;;;;;;2.00;1.50;;;3.20;99.90;;;;;;5329826;23;20498;-91
2023/01/15 19:05:52;;;;;;;1.40;1.10;;;3.20;99.90;;;;;;5022576;28;20483;-92
2023/01/15 19:08:21;;;;;;;7.10;2.37;;;3.30;99.90;;;;;;5017991;28;20559;-81
2023/01/15 19:10:48;;;;;;;1.57;1.13;;;3.20;99.90;;;;;;5011036;28;20527;-85
2023/01/15 19:13:16;;;;;;;6.73;1.27;;;3.00;99.90;;;;;;5007901;28;20475;-87
2023/01/15 19:18:51;;;;;;;2.30;1.10;;;3.40;99.90;;;;;;5006887;28;20476;-84
2023/01/15 19:21:20;;;;;;;2.53;1.10;;;3.10;99.90;;;;;;5008553;28;20862;-85
2023/01/15 19:23:47;;;;;;;1.60;1.30;;;3.10;99.90;;;;;;4994002;28;20437;-81
2023/01/15 19:26:14;;;;;;;2.07;1.20;;;3.10;99.90;;;;;;4989537;28;21022;-81
2023/01/15 19:28:41;;;;;;;1.30;1.00;;;3.10;99.90;;;;;;4989123;28;20476;-83
2023/01/15 19:33:55;;;;;;;1.80;1.70;;;2.90;99.90;;;;;;4997217;28;20447;-81
2023/01/15 19:36:24;;;;;;;1.67;1.30;;;3.00;99.90;;;;;;4999921;28;20539;-81